createdAt,value
2022-10-15T00:01:18.482Z,18.83
2022-10-15T00:03:42.684Z,8.07
2022-10-15T00:06:11.487Z,8.13
2022-10-15T00:08:33.713Z,10.63
2022-10-15T00:10:55.483Z,11.97
2022-10-15T00:13:17.217Z,11.93
2022-10-15T00:15:39.040Z,8.33
2022-10-15T00:18:00.818Z,10.30
2022-10-15T00:20:22.903Z,8.23
2022-10-15T00:22:44.832Z,10.30
2022-10-15T00:25:07.374Z,11.00
2022-10-15T00:27:29.186Z,9.27
2022-10-15T00:29:51.319Z,12.37
2022-10-15T00:32:13.312Z,10.60
2022-10-15T00:34:35.194Z,8.97
2022-10-15T00:36:56.986Z,10.37
2022-10-15T00:39:19.135Z,8.77
2022-10-15T00:41:43.955Z,8.90
2022-10-15T00:44:24.489Z,13.60
2022-10-15T00:46:49.554Z,9.03
2022-10-15T00:49:26.655Z,9.97
2022-10-15T00:52:05.500Z,9.93
2022-10-15T00:54:34.382Z,14.60
2022-10-15T00:56:57.424Z,103.13
2022-10-15T00:59:23.820Z,49.33
2022-10-15T01:01:45.760Z,10.17
2022-10-15T01:04:08.754Z,6.80
2022-10-15T01:06:30.680Z,7.27
2022-10-15T01:08:52.839Z,9.03
2022-10-15T01:11:26.597Z,8.03
2022-10-15T01:14:29.730Z,7.47
2022-10-15T01:17:07.984Z,8.07
2022-10-15T01:20:09.386Z,9.73
2022-10-15T01:22:50.211Z,8.53
2022-10-15T01:25:49.112Z,8.70
2022-10-15T01:28:37.759Z,11.97
2022-10-15T01:31:16.461Z,12.77
2022-10-15T01:34:03.936Z,16.93
2022-10-15T01:36:43.286Z,19.67
2022-10-15T01:39:18.949Z,26.33
2022-10-15T01:41:46.813Z,26.27
2022-10-15T01:44:24.357Z,28.57
2022-10-15T01:47:23.050Z,31.80
2022-10-15T01:49:48.291Z,33.53
2022-10-15T01:52:18.168Z,41.80
2022-10-15T01:54:40.795Z,49.17
2022-10-15T01:57:05.553Z,49.57
2022-10-15T01:59:33.434Z,53.47
2022-10-15T02:01:57.952Z,42.70
2022-10-15T02:04:27.910Z,50.30
2022-10-15T02:07:39.004Z,51.00
2022-10-15T02:10:36.425Z,57.00
2022-10-15T02:13:24.334Z,50.87
2022-10-15T02:15:59.183Z,52.27
2022-10-15T02:18:47.117Z,52.15
2022-10-15T02:21:32.282Z,48.57
2022-10-15T02:24:08.752Z,48.83
2022-10-15T02:26:31.044Z,45.97
2022-10-15T02:28:59.926Z,46.50
2022-10-15T02:31:25.928Z,45.83
2022-10-15T02:33:52.100Z,43.10
2022-10-15T02:36:15.227Z,44.20
2022-10-15T02:38:40.787Z,41.40
2022-10-15T02:41:03.299Z,43.97
2022-10-15T02:43:25.224Z,42.77
2022-10-15T02:45:49.696Z,45.00
2022-10-15T02:48:12.742Z,45.03
2022-10-15T02:50:34.525Z,36.80
2022-10-15T02:52:56.385Z,41.27
2022-10-15T02:55:18.199Z,39.80
2022-10-15T02:57:40.036Z,41.73
2022-10-15T03:00:05.203Z,37.00
2022-10-15T03:02:26.986Z,39.90
2022-10-15T03:04:48.828Z,39.73
2022-10-15T03:07:10.846Z,35.23
2022-10-15T03:09:33.546Z,38.63
2022-10-15T03:11:57.815Z,32.38
2022-10-15T03:14:19.741Z,36.93
2022-10-15T03:16:41.718Z,35.43
2022-10-15T03:19:04.845Z,31.87
2022-10-15T03:21:28.670Z,34.93
2022-10-15T03:23:56.045Z,35.10
2022-10-15T03:26:18.916Z,33.47
2022-10-15T03:28:40.918Z,32.93
2022-10-15T03:31:02.800Z,30.00
2022-10-15T03:33:25.519Z,34.53
2022-10-15T03:35:48.885Z,32.83
2022-10-15T03:38:11.248Z,31.23
2022-10-15T03:40:34.384Z,33.57
2022-10-15T03:43:10.451Z,36.37
2022-10-15T03:45:32.879Z,33.70
2022-10-15T03:48:07.102Z,34.25
2022-10-15T03:50:29.956Z,34.37
2022-10-15T03:52:55.038Z,35.83
2022-10-15T03:55:16.964Z,39.17
2022-10-15T03:57:40.309Z,37.60
2022-10-15T04:00:02.482Z,34.97
2022-10-15T04:02:33.965Z,37.10
2022-10-15T04:04:55.811Z,41.00
2022-10-15T04:07:17.717Z,39.23
2022-10-15T04:09:39.688Z,36.37
2022-10-15T04:12:21.275Z,36.23
2022-10-15T04:14:43.583Z,40.57
2022-10-15T04:17:05.375Z,38.93
2022-10-15T04:19:27.286Z,39.73
2022-10-15T04:21:56.449Z,42.37
2022-10-15T04:24:26.415Z,35.63
2022-10-15T04:26:48.827Z,43.10
2022-10-15T04:29:10.771Z,43.10
2022-10-15T04:31:33.449Z,46.93
2022-10-15T04:33:56.365Z,43.28
2022-10-15T04:39:13.838Z,44.30
2022-10-15T04:41:38.284Z,47.47
2022-10-15T04:44:04.337Z,40.67
2022-10-15T04:46:27.359Z,42.23
2022-10-15T04:48:50.959Z,50.90
2022-10-15T04:51:20.864Z,51.63
2022-10-15T04:54:01.804Z,43.07
2022-10-15T04:56:25.025Z,49.88
2022-10-15T04:58:50.200Z,47.73
2022-10-15T05:03:50.444Z,45.97
2022-10-15T05:06:22.502Z,46.37
2022-10-15T05:08:50.249Z,52.47
2022-10-15T05:11:24.549Z,49.70
2022-10-15T05:13:47.712Z,50.57
2022-10-15T05:16:21.215Z,51.93
2022-10-15T05:18:46.081Z,57.40
2022-10-15T05:21:08.681Z,58.83
2022-10-15T05:23:31.175Z,56.17
2022-10-15T05:26:10.581Z,68.57
2022-10-15T05:28:32.927Z,65.40
2022-10-15T05:30:54.788Z,71.10
2022-10-15T05:33:16.721Z,66.97
2022-10-15T05:35:38.535Z,68.47
2022-10-15T05:38:00.411Z,66.73
2022-10-15T05:40:22.703Z,66.60
2022-10-15T05:42:59.587Z,71.70
2022-10-15T05:45:21.612Z,63.80
2022-10-15T05:47:43.351Z,65.23
2022-10-15T05:50:11.870Z,59.83
2022-10-15T05:52:38.274Z,58.33
2022-10-15T05:55:19.223Z,59.57
2022-10-15T05:57:41.203Z,56.40
2022-10-15T06:00:05.969Z,62.53
2022-10-15T06:02:33.725Z,55.10
2022-10-15T06:04:56.384Z,49.37
2022-10-15T06:07:18.188Z,52.60
2022-10-15T06:09:40.069Z,54.50
2022-10-15T06:12:01.823Z,53.33
2022-10-15T06:14:24.679Z,50.93
2022-10-15T06:16:50.565Z,47.20
2022-10-15T06:19:12.350Z,54.63
2022-10-15T06:21:34.184Z,46.23
2022-10-15T06:23:56.188Z,48.23
2022-10-15T06:26:17.994Z,49.77
2022-10-15T06:28:43.207Z,53.93
2022-10-15T06:31:06.498Z,52.77
2022-10-15T06:33:29.108Z,43.20
2022-10-15T06:35:50.887Z,40.40
2022-10-15T06:38:12.752Z,39.43
2022-10-15T06:40:34.583Z,39.60
2022-10-15T06:43:02.655Z,43.30
2022-10-15T06:45:26.351Z,40.23
2022-10-15T06:47:48.197Z,41.17
2022-10-15T06:50:10.253Z,39.23
2022-10-15T06:52:33.270Z,38.00
2022-10-15T06:54:55.110Z,37.53
2022-10-15T06:57:17.124Z,35.77
2022-10-15T06:59:41.332Z,33.90
2022-10-15T07:04:25.329Z,30.17
2022-10-15T07:06:47.342Z,33.87
2022-10-15T07:09:12.130Z,34.50
2022-10-15T07:11:34.186Z,33.47
2022-10-15T07:13:58.082Z,34.70
2022-10-15T07:16:20.230Z,36.85
2022-10-15T07:18:42.087Z,34.10
2022-10-15T07:21:06.884Z,35.00
2022-10-15T07:23:28.749Z,33.60
2022-10-15T07:25:50.598Z,30.33
2022-10-15T07:28:12.622Z,29.83
2022-10-15T07:30:34.472Z,32.87
2022-10-15T07:32:58.200Z,29.47
2022-10-15T07:35:20.136Z,30.90
2022-10-15T07:37:41.986Z,31.80
2022-10-15T07:40:04.683Z,33.60
2022-10-15T07:42:29.206Z,33.47
2022-10-15T07:44:51.047Z,32.43
2022-10-15T07:47:12.833Z,31.60
2022-10-15T07:49:34.632Z,32.40
2022-10-15T07:51:56.735Z,31.43
2022-10-15T07:54:20.088Z,29.97
2022-10-15T07:56:41.933Z,30.13
2022-10-15T07:59:03.969Z,31.23
2022-10-15T08:01:25.912Z,26.90
2022-10-15T08:03:48.520Z,29.17
2022-10-15T08:06:10.435Z,26.73
2022-10-15T08:08:34.274Z,29.03
2022-10-15T08:10:56.170Z,26.88
2022-10-15T08:13:17.991Z,27.73
2022-10-15T08:15:43.274Z,28.00
2022-10-15T08:18:05.056Z,25.50
2022-10-15T08:20:27.003Z,26.97
2022-10-15T08:22:48.787Z,26.37
2022-10-15T08:25:10.780Z,30.27
2022-10-15T08:27:32.605Z,27.43
2022-10-15T08:29:58.971Z,26.50
2022-10-15T08:32:20.982Z,24.40
2022-10-15T08:34:43.237Z,25.17
2022-10-15T08:37:05.140Z,24.30
2022-10-15T08:39:27.027Z,21.83
2022-10-15T08:42:01.309Z,23.67
2022-10-15T08:44:36.680Z,21.03
2022-10-15T08:47:26.996Z,18.80
2022-10-15T08:49:59.625Z,16.03
2022-10-15T08:52:46.203Z,18.00
2022-10-15T08:55:22.089Z,16.90
2022-10-15T08:58:13.937Z,18.00
2022-10-15T09:00:46.404Z,20.10
2022-10-15T09:03:26.324Z,17.37
2022-10-15T09:05:52.263Z,15.53
2022-10-15T09:08:36.730Z,14.90
2022-10-15T09:11:12.709Z,15.93
2022-10-15T09:13:43.210Z,16.23
2022-10-15T09:16:17.679Z,15.37
2022-10-15T09:18:47.837Z,15.35
2022-10-15T09:21:11.520Z,13.33
2022-10-15T09:23:35.176Z,15.88
2022-10-15T09:26:03.346Z,15.10
2022-10-15T09:28:41.012Z,15.10
2022-10-15T09:31:03.032Z,13.53
2022-10-15T09:33:41.845Z,11.23
2022-10-15T09:36:54.932Z,12.63
2022-10-15T09:39:49.546Z,13.00
2022-10-15T09:42:36.469Z,11.43
2022-10-15T09:45:04.801Z,10.83
2022-10-15T09:47:34.735Z,13.53
2022-10-15T09:49:57.454Z,12.37
2022-10-15T09:53:08.304Z,12.33
2022-10-15T09:55:56.361Z,12.87
2022-10-15T09:58:30.812Z,15.33
2022-10-15T10:01:03.405Z,13.83
2022-10-15T10:03:33.079Z,16.73
2022-10-15T10:06:11.208Z,19.20
2022-10-15T10:09:00.954Z,21.80
2022-10-15T10:11:26.195Z,18.40
2022-10-15T10:14:00.865Z,16.10
2022-10-15T10:16:25.075Z,14.48
2022-10-15T10:19:15.244Z,16.10
2022-10-15T10:21:42.015Z,15.33
2022-10-15T10:24:32.093Z,14.47
2022-10-15T10:26:54.766Z,15.27
2022-10-15T10:29:33.636Z,13.03
2022-10-15T10:31:57.405Z,14.03
2022-10-15T10:34:30.466Z,13.93
2022-10-15T10:36:54.725Z,11.93
2022-10-15T10:39:32.191Z,14.63
2022-10-15T10:42:02.138Z,13.53
2022-10-15T10:44:33.121Z,12.33
2022-10-15T10:47:26.444Z,11.03
2022-10-15T10:49:58.288Z,10.33
2022-10-15T10:52:33.116Z,10.03
2022-10-15T10:55:19.169Z,9.77
2022-10-15T10:57:51.292Z,8.97
2022-10-15T11:00:31.187Z,9.17
2022-10-15T11:02:53.437Z,7.90
2022-10-15T11:05:26.170Z,8.50
2022-10-15T11:08:08.554Z,8.63
2022-10-15T11:10:58.546Z,7.20
2022-10-15T11:13:40.417Z,7.33
2022-10-15T11:16:23.868Z,7.70
2022-10-15T11:19:18.634Z,6.07
2022-10-15T11:22:27.719Z,8.93
2022-10-15T11:25:21.407Z,7.17
2022-10-15T11:28:17.261Z,6.93
2022-10-15T11:30:51.956Z,8.43
2022-10-15T11:33:48.971Z,7.80
2022-10-15T11:36:51.145Z,7.40
2022-10-15T11:39:46.214Z,6.63
2022-10-15T11:42:27.572Z,7.55
2022-10-15T11:45:26.143Z,5.77
2022-10-15T11:48:01.446Z,4.60
2022-10-15T11:50:45.020Z,5.40
2022-10-15T11:53:44.169Z,5.63
2022-10-15T11:56:26.675Z,6.27
2022-10-15T11:59:14.528Z,5.03
2022-10-15T12:01:46.555Z,4.30
2022-10-15T12:04:30.373Z,4.23
2022-10-15T12:07:01.436Z,5.00
2022-10-15T12:09:32.038Z,6.07
2022-10-15T12:12:27.542Z,4.90
2022-10-15T12:15:03.807Z,5.53
2022-10-15T12:17:48.842Z,4.77
2022-10-15T12:20:23.367Z,4.70
2022-10-15T12:22:47.546Z,4.90
2022-10-15T12:25:35.047Z,4.73
2022-10-15T12:28:14.724Z,4.77
2022-10-15T12:30:37.772Z,4.67
2022-10-15T12:33:01.366Z,5.33
2022-10-15T12:35:41.406Z,4.87
2022-10-15T12:38:36.761Z,4.33
2022-10-15T12:41:13.900Z,4.95
2022-10-15T12:43:45.918Z,5.13
2022-10-15T12:46:11.092Z,4.80
2022-10-15T12:48:42.184Z,4.30
2022-10-15T12:51:22.659Z,4.40
2022-10-15T12:53:46.323Z,4.23
2022-10-15T12:56:11.252Z,3.80
2022-10-15T12:58:41.561Z,3.73
2022-10-15T13:01:12.975Z,3.63
2022-10-15T13:03:50.577Z,3.60
2022-10-15T13:06:40.157Z,3.40
2022-10-15T13:09:41.666Z,4.33
2022-10-15T13:12:04.667Z,4.93
2022-10-15T13:14:37.333Z,3.47
2022-10-15T13:17:04.996Z,3.40
2022-10-15T13:19:55.235Z,3.50
2022-10-15T13:22:29.629Z,3.33
2022-10-15T13:24:51.645Z,4.07
2022-10-15T13:27:21.964Z,3.70
2022-10-15T13:29:59.522Z,3.60
2022-10-15T13:32:22.831Z,4.07
2022-10-15T13:34:45.117Z,3.40
2022-10-15T13:37:07.031Z,4.07
2022-10-15T13:39:41.346Z,3.77
2022-10-15T13:42:15.008Z,3.47
2022-10-15T13:44:37.011Z,3.30
2022-10-15T13:46:59.121Z,3.72
2022-10-15T13:49:22.286Z,3.75
2022-10-15T13:51:50.811Z,4.07
2022-10-15T13:54:21.962Z,4.07
2022-10-15T13:56:54.290Z,4.67
2022-10-15T13:59:20.261Z,3.53
2022-10-15T14:01:49.685Z,3.80
2022-10-15T14:04:22.905Z,3.90
2022-10-15T14:06:57.078Z,4.97
2022-10-15T14:09:28.483Z,5.35
2022-10-15T14:11:50.693Z,5.45
2022-10-15T14:14:41.292Z,3.35
2022-10-15T14:17:21.371Z,3.50
2022-10-15T14:20:14.457Z,3.63
2022-10-15T14:22:35.619Z,2.27
2022-10-15T14:24:58.026Z,2.70
2022-10-15T14:27:27.171Z,3.83
2022-10-15T14:30:01.343Z,2.40
2022-10-15T14:32:27.499Z,3.42
2022-10-15T14:34:50.963Z,0.80
2022-10-15T14:37:40.281Z,0.73
2022-10-15T14:40:08.426Z,2.00
2022-10-15T14:42:33.381Z,2.17
2022-10-15T14:44:55.983Z,1.10
2022-10-15T14:47:26.951Z,1.93
2022-10-15T14:49:54.027Z,1.60
2022-10-15T14:52:20.567Z,1.00
2022-10-15T14:54:49.905Z,1.33
2022-10-15T14:57:30.734Z,1.70
2022-10-15T14:59:56.168Z,1.70
2022-10-15T15:02:19.581Z,2.27
2022-10-15T15:05:03.890Z,1.30
2022-10-15T15:07:25.728Z,1.30
2022-10-15T15:09:48.961Z,1.00
2022-10-15T15:12:21.735Z,1.57
2022-10-15T15:14:46.733Z,1.60
2022-10-15T15:17:16.918Z,2.00
2022-10-15T15:19:43.651Z,1.97
2022-10-15T15:22:05.857Z,1.50
2022-10-15T15:24:27.790Z,1.17
2022-10-15T15:26:49.560Z,2.77
2022-10-15T15:29:14.735Z,2.57
2022-10-15T15:31:36.773Z,3.50
2022-10-15T15:33:58.844Z,1.83
2022-10-15T15:36:23.449Z,1.20
2022-10-15T15:38:45.999Z,0.80
2022-10-15T15:41:17.882Z,0.60
2022-10-15T15:43:40.343Z,1.00
2022-10-15T15:46:02.572Z,3.10
2022-10-15T15:48:24.483Z,2.30
2022-10-15T15:50:46.994Z,1.23
2022-10-15T15:53:12.738Z,3.50
2022-10-15T15:55:34.576Z,4.00
2022-10-15T15:57:56.443Z,3.00
2022-10-15T16:00:19.224Z,5.47
2022-10-15T16:02:41.532Z,3.43
2022-10-15T16:05:05.789Z,0.87
2022-10-15T16:07:29.001Z,1.05
2022-10-15T16:09:50.866Z,1.97
2022-10-15T16:12:12.687Z,2.20
2022-10-15T16:14:34.565Z,2.93
2022-10-15T16:16:56.498Z,1.57
2022-10-15T16:19:18.322Z,4.13
2022-10-15T16:21:40.389Z,1.50
2022-10-15T16:24:02.309Z,2.17
2022-10-15T16:26:24.344Z,1.20
2022-10-15T16:28:46.624Z,1.67
2022-10-15T16:31:19.159Z,2.50
2022-10-15T16:33:41.397Z,1.60
2022-10-15T16:36:03.285Z,1.30
2022-10-15T16:38:25.449Z,3.30
2022-10-15T16:40:47.523Z,2.53
2022-10-15T16:43:10.472Z,3.87
2022-10-15T16:45:33.122Z,1.50
2022-10-15T16:47:54.963Z,1.27
2022-10-15T16:50:17.254Z,1.63
2022-10-15T16:52:39.090Z,1.70
2022-10-15T16:55:01.090Z,2.27
2022-10-15T16:57:22.886Z,2.43
2022-10-15T16:59:44.784Z,3.13
2022-10-15T17:02:07.166Z,3.23
2022-10-15T17:04:29.032Z,2.87
2022-10-15T17:06:51.051Z,4.57
2022-10-15T17:09:12.867Z,3.67
2022-10-15T17:11:41.779Z,3.57
2022-10-15T17:14:10.644Z,4.87
2022-10-15T17:16:44.287Z,2.73
2022-10-15T17:19:07.719Z,4.97
2022-10-15T17:21:31.111Z,3.63
2022-10-15T17:24:00.022Z,4.37
2022-10-15T17:26:26.385Z,4.90
2022-10-15T17:28:51.054Z,3.83
2022-10-15T17:31:18.127Z,4.70
2022-10-15T17:33:44.216Z,3.50
2022-10-15T17:36:10.015Z,3.93
2022-10-15T17:38:32.682Z,2.77
2022-10-15T17:40:54.509Z,3.93
2022-10-15T17:43:16.314Z,3.17
2022-10-15T17:45:38.058Z,5.07
2022-10-15T17:48:01.187Z,5.40
2022-10-15T17:50:22.968Z,3.30
2022-10-15T17:52:44.778Z,4.17
2022-10-15T17:55:07.445Z,3.07
2022-10-15T17:57:29.300Z,5.23
2022-10-15T17:59:51.426Z,4.27
2022-10-15T18:02:13.262Z,5.70
2022-10-15T18:04:40.795Z,7.20
2022-10-15T18:07:02.607Z,4.53
2022-10-15T18:09:28.268Z,4.20
2022-10-15T18:11:50.524Z,4.07
2022-10-15T18:14:12.353Z,5.07
2022-10-15T18:16:34.205Z,7.43
2022-10-15T18:18:56.442Z,5.07
2022-10-15T18:21:20.643Z,5.53
2022-10-15T18:23:43.388Z,6.03
2022-10-15T18:26:17.120Z,4.37
2022-10-15T18:28:43.830Z,8.97
2022-10-15T18:31:07.940Z,5.10
2022-10-15T18:33:30.347Z,4.43
2022-10-15T18:35:52.292Z,5.13
2022-10-15T18:38:14.090Z,3.50
2022-10-15T18:40:41.134Z,4.03
2022-10-15T18:43:04.856Z,3.73
2022-10-15T18:45:26.675Z,3.10
2022-10-15T18:47:48.421Z,5.23
2022-10-15T18:50:10.462Z,5.57
2022-10-15T18:52:39.715Z,3.28
2022-10-15T18:55:02.604Z,4.07
2022-10-15T18:57:24.380Z,4.13
2022-10-15T18:59:47.481Z,4.90
2022-10-15T19:02:10.280Z,5.13
2022-10-15T19:04:32.137Z,4.63
2022-10-15T19:06:54.994Z,4.60
2022-10-15T19:09:23.912Z,3.33
2022-10-15T19:11:50.959Z,6.30
2022-10-15T19:14:15.820Z,4.43
2022-10-15T19:16:37.772Z,5.20
2022-10-15T19:19:06.235Z,4.77
2022-10-15T19:21:28.186Z,6.93
2022-10-15T19:23:50.254Z,5.17
2022-10-15T19:26:14.011Z,5.53
2022-10-15T19:28:37.150Z,9.50
2022-10-15T19:31:03.182Z,4.83
2022-10-15T19:33:31.473Z,6.47
2022-10-15T19:35:55.854Z,8.57
2022-10-15T19:38:18.177Z,5.53
2022-10-15T19:40:44.711Z,6.63
2022-10-15T19:43:09.036Z,8.30
2022-10-15T19:45:30.898Z,5.60
2022-10-15T19:47:52.642Z,5.00
2022-10-15T19:50:14.519Z,6.40
2022-10-15T19:52:36.400Z,4.53
2022-10-15T19:54:58.186Z,5.13
2022-10-15T19:57:20.023Z,5.93
2022-10-15T19:59:41.948Z,6.80
2022-10-15T20:02:03.731Z,5.43
2022-10-15T20:04:25.574Z,5.67
2022-10-15T20:06:49.225Z,5.97
2022-10-15T20:09:11.001Z,6.03
2022-10-15T20:11:33.056Z,5.27
2022-10-15T20:13:54.854Z,6.47
2022-10-15T20:16:19.569Z,6.80
2022-10-15T20:18:44.127Z,7.90
2022-10-15T20:21:11.630Z,6.63
2022-10-15T20:23:33.946Z,6.00
2022-10-15T20:25:55.760Z,6.57
2022-10-15T20:28:18.378Z,6.40
2022-10-15T20:30:42.378Z,4.72
2022-10-15T20:33:04.969Z,5.27
2022-10-15T20:35:27.002Z,5.37
2022-10-15T20:37:48.923Z,5.23
2022-10-15T20:40:11.075Z,6.60
2022-10-15T20:42:37.573Z,5.37
2022-10-15T20:44:59.496Z,5.67
2022-10-15T20:47:24.028Z,5.07
2022-10-15T20:52:14.791Z,5.30
2022-10-15T20:54:37.827Z,5.45
2022-10-15T20:57:00.244Z,7.20
2022-10-15T20:59:26.441Z,4.73
2022-10-15T21:01:51.272Z,6.03
2022-10-15T21:04:13.423Z,4.20
2022-10-15T21:06:35.379Z,5.53
2022-10-15T21:08:57.545Z,5.57
2022-10-15T21:11:19.543Z,5.33
2022-10-15T21:13:41.375Z,5.13
2022-10-15T21:16:06.711Z,7.63
2022-10-15T21:18:29.441Z,3.77
2022-10-15T21:20:51.387Z,4.63
2022-10-15T21:23:13.789Z,7.63
2022-10-15T21:25:35.610Z,5.60
2022-10-15T21:27:57.531Z,4.67
2022-10-15T21:30:19.469Z,8.77
2022-10-15T21:32:41.295Z,5.77
2022-10-15T21:35:03.754Z,5.13
2022-10-15T21:37:25.876Z,7.73
2022-10-15T21:39:47.831Z,7.63
2022-10-15T21:42:09.605Z,8.00
2022-10-15T21:44:31.637Z,7.37
2022-10-15T21:46:53.461Z,7.10
2022-10-15T21:49:15.347Z,8.63
2022-10-15T21:51:38.094Z,5.03
2022-10-15T21:54:02.124Z,7.37
2022-10-15T21:56:24.440Z,6.22
2022-10-15T21:58:46.673Z,7.00
2022-10-15T22:01:09.773Z,7.20
2022-10-15T22:03:31.600Z,6.73
2022-10-15T22:05:53.403Z,5.60
2022-10-15T22:08:15.824Z,6.07
2022-10-15T22:10:37.840Z,7.80
2022-10-15T22:12:59.684Z,6.73
2022-10-15T22:15:21.520Z,5.90
2022-10-15T22:17:43.516Z,6.70
2022-10-15T22:20:06.536Z,8.77
2022-10-15T22:22:28.582Z,8.07
2022-10-15T22:24:50.456Z,5.97
2022-10-15T22:27:12.802Z,5.90
2022-10-15T22:29:35.531Z,6.10
2022-10-15T22:31:58.135Z,6.10
2022-10-15T22:34:22.175Z,7.13
2022-10-15T22:36:44.704Z,3.90
2022-10-15T22:39:08.253Z,5.43
2022-10-15T22:41:34.049Z,6.70
2022-10-15T22:43:56.105Z,5.87
2022-10-15T22:46:18.090Z,7.67
2022-10-15T22:48:42.979Z,5.03
2022-10-15T22:51:08.935Z,4.60
2022-10-15T22:53:31.394Z,5.83
2022-10-15T22:56:05.037Z,5.10
2022-10-15T22:58:29.080Z,11.10
2022-10-15T23:00:51.949Z,6.32
2022-10-15T23:03:13.723Z,5.97
2022-10-15T23:05:35.506Z,5.57
2022-10-15T23:07:57.312Z,6.50
2022-10-15T23:10:19.081Z,6.60
2022-10-15T23:12:40.868Z,4.60
2022-10-15T23:15:02.945Z,5.30
2022-10-15T23:17:24.786Z,5.40
2022-10-15T23:19:46.517Z,6.07
2022-10-15T23:22:09.318Z,4.67
2022-10-15T23:24:31.044Z,4.37
2022-10-15T23:26:53.949Z,4.80
2022-10-15T23:29:20.016Z,5.47
2022-10-15T23:31:43.175Z,7.77
2022-10-15T23:34:06.134Z,5.67
2022-10-15T23:36:30.323Z,5.70
2022-10-15T23:38:58.530Z,7.15
2022-10-15T23:41:21.335Z,5.40
2022-10-15T23:43:43.171Z,5.83
2022-10-15T23:46:05.184Z,7.13
2022-10-15T23:48:28.162Z,5.83
2022-10-15T23:50:50.157Z,8.03
2022-10-15T23:53:11.903Z,5.00
2022-10-15T23:55:41.473Z,10.10
2022-10-15T23:58:03.271Z,7.63
